createdAt,value
2018-05-24T00:00:06.128Z,1017.10
2018-05-24T00:01:06.090Z,1017.12
2018-05-24T00:02:06.047Z,1017.08
2018-05-24T00:03:06.004Z,1017.10
2018-05-24T00:04:05.965Z,1017.11
2018-05-24T00:05:05.924Z,1017.12
2018-05-24T00:06:05.885Z,1017.08
2018-05-24T00:07:05.844Z,1017.11
2018-05-24T00:08:05.804Z,1017.10
2018-05-24T00:09:05.767Z,1017.10
2018-05-24T00:10:05.722Z,1017.09
2018-05-24T00:11:05.687Z,1017.09
2018-05-24T00:12:05.649Z,1017.07
2018-05-24T00:13:05.635Z,1017.10
2018-05-24T00:14:05.562Z,1017.11
2018-05-24T00:15:05.521Z,1017.06
2018-05-24T00:16:05.497Z,1017.11
2018-05-24T00:17:05.447Z,1017.16
2018-05-24T00:18:05.406Z,1017.11
2018-05-24T00:19:05.364Z,1017.11
2018-05-24T00:20:05.322Z,1017.11
2018-05-24T00:21:05.278Z,1017.09
2018-05-24T00:22:05.239Z,1017.12
2018-05-24T00:23:05.201Z,1017.11
2018-05-24T00:24:05.157Z,1017.12
2018-05-24T00:25:05.114Z,1017.07
2018-05-24T00:26:05.078Z,1017.07
2018-05-24T00:27:05.036Z,1017.06
2018-05-24T00:28:04.994Z,1017.09
2018-05-24T00:29:06.406Z,1017.09
2018-05-24T00:30:04.914Z,1017.09
2018-05-24T00:31:04.872Z,1017.06
2018-05-24T00:32:04.836Z,1017.07
2018-05-24T00:33:04.800Z,1017.08
2018-05-24T00:34:04.755Z,1017.00
2018-05-24T00:35:04.709Z,1017.06
2018-05-24T00:36:04.674Z,1017.04
2018-05-24T00:37:04.633Z,1017.07
2018-05-24T00:38:04.594Z,1017.03
2018-05-24T00:39:04.552Z,1017.04
2018-05-24T00:40:04.512Z,1017.00
2018-05-24T00:41:04.467Z,1017.04
2018-05-24T00:42:04.426Z,1017.01
2018-05-24T00:43:04.386Z,1017.04
2018-05-24T00:44:04.352Z,1017.05
2018-05-24T00:45:04.311Z,1017.01
2018-05-24T00:46:04.271Z,1017.01
2018-05-24T00:47:04.227Z,1017.04
2018-05-24T00:48:04.188Z,1017.04
2018-05-24T00:49:04.143Z,1017.03
2018-05-24T00:50:04.106Z,1016.94
2018-05-24T00:51:04.065Z,1016.99
2018-05-24T00:52:04.023Z,1017.02
2018-05-24T00:53:03.983Z,1017.05
2018-05-24T00:54:03.946Z,1017.00
2018-05-24T00:55:03.903Z,1017.02
2018-05-24T00:56:03.860Z,1017.04
2018-05-24T00:57:03.819Z,1016.99
2018-05-24T00:58:03.780Z,1017.02
2018-05-24T00:59:03.738Z,1016.98
2018-05-24T01:00:03.698Z,1016.97
2018-05-24T01:01:03.657Z,1016.89
2018-05-24T01:02:03.615Z,1016.98
2018-05-24T01:03:03.574Z,1016.99
2018-05-24T01:04:03.533Z,1017.00
2018-05-24T01:05:03.497Z,1017.02
2018-05-24T01:06:03.455Z,1017.01
2018-05-24T01:07:03.504Z,1017.01
2018-05-24T01:08:03.381Z,1017.04
2018-05-24T01:09:03.330Z,1017.00
2018-05-24T01:10:03.292Z,1017.00
2018-05-24T01:11:03.251Z,1016.97
2018-05-24T01:12:03.207Z,1017.00
2018-05-24T01:13:03.171Z,1016.94
2018-05-24T01:14:03.127Z,1016.95
2018-05-24T01:15:03.090Z,1016.99
2018-05-24T01:16:03.049Z,1016.97
2018-05-24T01:17:03.007Z,1016.97
2018-05-24T01:18:02.967Z,1016.94
2018-05-24T01:19:02.924Z,1016.91
2018-05-24T01:20:02.883Z,1016.92
2018-05-24T01:21:02.843Z,1016.91
2018-05-24T01:22:02.897Z,1016.88
2018-05-24T01:23:02.759Z,1016.88
2018-05-24T01:24:02.732Z,1016.88
2018-05-24T01:25:02.680Z,1016.89
2018-05-24T01:26:02.638Z,1016.86
2018-05-24T01:27:02.599Z,1016.83
2018-05-24T01:28:02.559Z,1016.87
2018-05-24T01:29:02.546Z,1016.90
2018-05-24T01:30:05.787Z,1016.90
2018-05-24T01:31:02.437Z,1016.88
2018-05-24T01:32:02.399Z,1016.90
2018-05-24T01:33:02.358Z,1016.95
2018-05-24T01:34:02.315Z,1016.87
2018-05-24T01:35:02.273Z,1016.86
2018-05-24T01:36:02.232Z,1016.88
2018-05-24T01:37:02.189Z,1016.86
2018-05-24T01:38:02.152Z,1016.85
2018-05-24T01:39:02.114Z,1016.84
2018-05-24T01:40:02.074Z,1016.85
2018-05-24T01:41:02.032Z,1016.82
2018-05-24T01:42:01.990Z,1016.81
2018-05-24T01:43:01.944Z,1016.83
2018-05-24T01:44:01.906Z,1016.81
2018-05-24T01:45:01.877Z,1016.79
2018-05-24T01:46:01.824Z,1016.82
2018-05-24T01:47:01.784Z,1016.84
2018-05-24T01:48:01.754Z,1016.82
2018-05-24T01:49:01.701Z,1016.83
2018-05-24T01:50:01.659Z,1016.83
2018-05-24T01:51:01.621Z,1016.82
2018-05-24T01:52:01.581Z,1016.76
2018-05-24T01:53:01.538Z,1016.79
2018-05-24T01:54:01.503Z,1016.76
2018-05-24T01:55:01.454Z,1016.75
2018-05-24T01:56:01.414Z,1016.74
2018-05-24T01:57:01.377Z,1016.72
2018-05-24T01:58:01.334Z,1016.74
2018-05-24T01:59:01.299Z,1016.72
2018-05-24T02:00:01.256Z,1016.73
2018-05-24T02:01:01.211Z,1016.60
2018-05-24T02:02:01.177Z,1016.63
2018-05-24T02:03:01.128Z,1016.67
2018-05-24T02:04:01.092Z,1016.65
2018-05-24T02:05:01.047Z,1016.67
2018-05-24T02:06:01.009Z,1016.72
2018-05-24T02:07:00.967Z,1016.67
2018-05-24T02:08:00.924Z,1016.68
2018-05-24T02:09:00.884Z,1016.64
2018-05-24T02:10:00.848Z,1016.66
2018-05-24T02:11:00.803Z,1016.62
2018-05-24T02:12:00.765Z,1016.63
2018-05-24T02:13:00.723Z,1016.61
2018-05-24T02:14:00.688Z,1016.59
2018-05-24T02:15:00.637Z,1016.62
2018-05-24T02:16:00.600Z,1016.59
2018-05-24T02:17:00.557Z,1016.55
2018-05-24T02:18:00.518Z,1016.58
2018-05-24T02:19:00.475Z,1016.55
2018-05-24T02:20:00.437Z,1016.57
2018-05-24T02:21:00.397Z,1016.55
2018-05-24T02:22:00.354Z,1016.52
2018-05-24T02:23:00.323Z,1016.50
2018-05-24T02:24:00.277Z,1016.53
2018-05-24T02:25:00.233Z,1016.51
2018-05-24T02:26:00.189Z,1016.49
2018-05-24T02:27:00.148Z,1016.52
2018-05-24T02:28:00.117Z,1016.51
2018-05-24T02:29:00.071Z,1016.48
2018-05-24T02:30:00.030Z,1016.49
2018-05-24T02:30:59.985Z,1016.48
2018-05-24T02:31:59.945Z,1016.45
2018-05-24T02:32:59.903Z,1016.42
2018-05-24T02:33:59.871Z,1016.48
2018-05-24T02:34:59.825Z,1016.50
2018-05-24T02:36:00.050Z,1016.44
2018-05-24T02:36:59.740Z,1016.45
2018-05-24T02:37:59.705Z,1016.45
2018-05-24T02:38:59.662Z,1016.43
2018-05-24T02:39:59.617Z,1016.46
2018-05-24T02:40:59.635Z,1016.46
2018-05-24T02:41:59.536Z,1016.53
2018-05-24T02:42:59.520Z,1016.51
2018-05-24T02:43:59.527Z,1016.47
2018-05-24T02:44:59.506Z,1016.51
2018-05-24T02:45:59.480Z,1016.52
2018-05-24T02:46:59.335Z,1016.50
2018-05-24T02:47:59.290Z,1016.52
2018-05-24T02:48:59.272Z,1016.52
2018-05-24T02:49:59.214Z,1016.56
2018-05-24T02:50:59.168Z,1016.49
2018-05-24T02:51:59.129Z,1016.50
2018-05-24T02:52:59.112Z,1016.52
2018-05-24T02:53:59.047Z,1016.52
2018-05-24T02:54:59.004Z,1016.50
2018-05-24T02:55:58.968Z,1016.45
2018-05-24T02:56:58.928Z,1016.49
2018-05-24T02:57:58.885Z,1016.46
2018-05-24T02:58:58.845Z,1016.50
2018-05-24T02:59:58.803Z,1016.51
2018-05-24T03:00:58.761Z,1016.47
2018-05-24T03:01:58.720Z,1016.53
2018-05-24T03:02:58.677Z,1016.56
2018-05-24T03:03:58.637Z,1016.54
2018-05-24T03:04:58.597Z,1016.58
2018-05-24T03:05:58.556Z,1016.57
2018-05-24T03:06:58.525Z,1016.62
2018-05-24T03:07:58.475Z,1016.60
2018-05-24T03:08:58.434Z,1016.59
2018-05-24T03:09:58.393Z,1016.59
2018-05-24T03:10:58.352Z,1016.63
2018-05-24T03:11:58.319Z,1016.62
2018-05-24T03:12:58.277Z,1016.57
2018-05-24T03:13:58.236Z,1016.64
2018-05-24T03:14:58.187Z,1016.65
2018-05-24T03:15:58.149Z,1016.66
2018-05-24T03:16:58.109Z,1016.68
2018-05-24T03:17:58.070Z,1016.75
2018-05-24T03:18:58.022Z,1016.71
2018-05-24T03:19:57.984Z,1016.75
2018-05-24T03:20:57.947Z,1016.72
2018-05-24T03:21:57.902Z,1016.76
2018-05-24T03:22:57.861Z,1016.65
2018-05-24T03:23:57.818Z,1016.64
2018-05-24T03:24:57.781Z,1016.67
2018-05-24T03:25:57.737Z,1016.71
2018-05-24T03:26:57.701Z,1016.70
2018-05-24T03:27:57.655Z,1016.66
2018-05-24T03:28:57.615Z,1016.65
2018-05-24T03:29:57.576Z,1016.67
2018-05-24T03:30:57.535Z,1016.69
2018-05-24T03:31:57.496Z,1016.65
2018-05-24T03:32:57.455Z,1016.69
2018-05-24T03:33:57.408Z,1016.74
2018-05-24T03:34:57.368Z,1016.75
2018-05-24T03:35:57.326Z,1016.79
2018-05-24T03:36:57.287Z,1016.80
2018-05-24T03:37:57.245Z,1016.76
2018-05-24T03:38:57.203Z,1016.72
2018-05-24T03:39:57.167Z,1016.78
2018-05-24T03:40:57.124Z,1016.78
2018-05-24T03:41:57.084Z,1016.77
2018-05-24T03:42:57.038Z,1016.74
2018-05-24T03:43:56.997Z,1016.73
2018-05-24T03:44:56.956Z,1016.71
2018-05-24T03:45:56.917Z,1016.69
2018-05-24T03:46:56.879Z,1016.75
2018-05-24T03:47:56.833Z,1016.73
2018-05-24T03:48:56.794Z,1016.76
2018-05-24T03:49:56.751Z,1016.70
2018-05-24T03:50:56.710Z,1016.71
2018-05-24T03:51:56.667Z,1016.79
2018-05-24T03:52:56.626Z,1016.79
2018-05-24T03:53:56.586Z,1016.78
2018-05-24T03:54:56.544Z,1016.74
2018-05-24T03:55:56.502Z,1016.76
2018-05-24T03:56:56.462Z,1016.77
2018-05-24T03:57:56.420Z,1016.74
2018-05-24T03:58:56.383Z,1016.73
2018-05-24T03:59:56.337Z,1016.72
2018-05-24T04:00:56.298Z,1016.69
2018-05-24T04:01:56.255Z,1016.65
2018-05-24T04:02:56.213Z,1016.63
2018-05-24T04:03:56.174Z,1016.63
2018-05-24T04:04:56.133Z,1016.65
2018-05-24T04:05:56.090Z,1016.64
2018-05-24T04:06:56.047Z,1016.59
2018-05-24T04:07:56.013Z,1016.62
2018-05-24T04:08:56.017Z,1016.63
2018-05-24T04:09:55.945Z,1016.59
2018-05-24T04:10:55.880Z,1016.63
2018-05-24T04:11:55.924Z,1016.62
2018-05-24T04:12:55.799Z,1016.60
2018-05-24T04:13:55.760Z,1016.54
2018-05-24T04:14:55.714Z,1016.51
2018-05-24T04:15:55.675Z,1016.49
2018-05-24T04:16:55.635Z,1016.43
2018-05-24T04:17:55.593Z,1016.43
2018-05-24T04:18:55.551Z,1016.46
2018-05-24T04:19:55.513Z,1016.41
2018-05-24T04:20:55.470Z,1016.42
2018-05-24T04:21:55.437Z,1016.44
2018-05-24T04:22:55.382Z,1016.45
2018-05-24T04:23:55.340Z,1016.42
2018-05-24T04:24:55.313Z,1016.44
2018-05-24T04:25:55.261Z,1016.47
2018-05-24T04:26:55.245Z,1016.44
2018-05-24T04:27:55.175Z,1016.43
2018-05-24T04:28:55.133Z,1016.42
2018-05-24T04:29:55.093Z,1016.42
2018-05-24T04:30:55.054Z,1016.42
2018-05-24T04:31:55.009Z,1016.41
2018-05-24T04:32:54.972Z,1016.38
2018-05-24T04:33:54.928Z,1016.39
2018-05-24T04:34:54.884Z,1016.43
2018-05-24T04:35:54.843Z,1016.44
2018-05-24T04:36:54.800Z,1016.47
2018-05-24T04:37:54.758Z,1016.45
2018-05-24T04:38:54.717Z,1016.43
2018-05-24T04:39:54.675Z,1016.42
2018-05-24T04:40:54.639Z,1016.44
2018-05-24T04:41:54.594Z,1016.41
2018-05-24T04:42:54.559Z,1016.42
2018-05-24T04:43:54.518Z,1016.44
2018-05-24T04:44:54.472Z,1016.42
2018-05-24T04:45:54.432Z,1016.45
2018-05-24T04:46:54.387Z,1016.47
2018-05-24T04:47:54.347Z,1016.43
2018-05-24T04:48:54.302Z,1016.45
2018-05-24T04:49:54.262Z,1016.45
2018-05-24T04:50:54.221Z,1016.44
2018-05-24T04:51:54.179Z,1016.43
2018-05-24T04:52:54.136Z,1016.43
2018-05-24T04:53:54.096Z,1016.45
2018-05-24T04:54:54.054Z,1016.42
2018-05-24T04:55:54.010Z,1016.43
2018-05-24T04:56:54.319Z,1016.47
2018-05-24T04:57:53.931Z,1016.48
2018-05-24T04:58:53.890Z,1016.46
2018-05-24T04:59:53.850Z,1016.52
2018-05-24T05:00:53.806Z,1016.52
2018-05-24T05:01:53.770Z,1016.59
2018-05-24T05:02:53.723Z,1016.63
2018-05-24T05:03:53.682Z,1016.63
2018-05-24T05:04:53.800Z,1016.60
2018-05-24T05:05:53.599Z,1016.56
2018-05-24T05:06:53.554Z,1016.57
2018-05-24T05:07:53.511Z,1016.60
2018-05-24T05:08:53.472Z,1016.59
2018-05-24T05:09:53.437Z,1016.54
2018-05-24T05:10:53.391Z,1016.54
2018-05-24T05:11:53.602Z,1016.60
2018-05-24T05:12:53.303Z,1016.58
2018-05-24T05:13:53.264Z,1016.62
2018-05-24T05:14:53.226Z,1016.60
2018-05-24T05:15:53.192Z,1016.58
2018-05-24T05:16:53.138Z,1016.56
2018-05-24T05:17:53.097Z,1016.57
2018-05-24T05:18:53.057Z,1016.60
2018-05-24T05:19:53.017Z,1016.58
2018-05-24T05:20:52.970Z,1016.53
2018-05-24T05:21:52.930Z,1016.54
2018-05-24T05:22:52.889Z,1016.46
2018-05-24T05:23:52.849Z,1016.47
2018-05-24T05:24:53.076Z,1016.49
2018-05-24T05:25:52.767Z,1016.45
2018-05-24T05:26:52.719Z,1016.49
2018-05-24T05:27:52.681Z,1016.54
2018-05-24T05:28:52.643Z,1016.54
2018-05-24T05:29:52.596Z,1016.49
2018-05-24T05:30:52.558Z,1016.51
2018-05-24T05:31:52.512Z,1016.55
2018-05-24T05:32:52.501Z,1016.51
2018-05-24T05:33:52.433Z,1016.60
2018-05-24T05:34:52.387Z,1016.57
2018-05-24T05:35:52.346Z,1016.57
2018-05-24T05:36:52.306Z,1016.57
2018-05-24T05:37:52.266Z,1016.60
2018-05-24T05:38:52.227Z,1016.61
2018-05-24T05:39:52.181Z,1016.61
2018-05-24T05:40:52.142Z,1016.60
2018-05-24T05:41:52.252Z,1016.56
2018-05-24T05:42:52.054Z,1016.60
2018-05-24T05:43:52.013Z,1016.61
2018-05-24T05:44:52.072Z,1016.58
2018-05-24T05:45:51.932Z,1016.60
2018-05-24T05:46:51.888Z,1016.58
2018-05-24T05:47:51.845Z,1016.57
2018-05-24T05:48:51.810Z,1016.54
2018-05-24T05:49:51.767Z,1016.55
2018-05-24T05:50:51.725Z,1016.59
2018-05-24T05:51:51.688Z,1016.64
2018-05-24T05:52:51.640Z,1016.58
2018-05-24T05:53:51.598Z,1016.60
2018-05-24T05:54:51.555Z,1016.58
2018-05-24T05:55:51.514Z,1016.58
2018-05-24T05:56:51.473Z,1016.55
2018-05-24T05:57:51.438Z,1016.57
2018-05-24T05:58:51.392Z,1016.54
2018-05-24T05:59:51.350Z,1016.52
2018-05-24T06:00:51.307Z,1016.54
2018-05-24T06:01:51.349Z,1016.50
2018-05-24T06:02:51.223Z,1016.51
2018-05-24T06:03:51.181Z,1016.51
2018-05-24T06:04:51.140Z,1016.54
2018-05-24T06:05:51.101Z,1016.52
2018-05-24T06:06:51.059Z,1016.52
2018-05-24T06:07:51.015Z,1016.54
2018-05-24T06:08:50.974Z,1016.54
2018-05-24T06:09:50.934Z,1016.53
2018-05-24T06:10:50.893Z,1016.49
2018-05-24T06:11:50.852Z,1016.51
2018-05-24T06:12:50.812Z,1016.50
2018-05-24T06:13:50.806Z,1016.49
2018-05-24T06:14:50.724Z,1016.51
2018-05-24T06:15:50.682Z,1016.51
2018-05-24T06:16:50.651Z,1016.46
2018-05-24T06:17:50.603Z,1016.49
2018-05-24T06:18:50.560Z,1016.48
2018-05-24T06:19:50.515Z,1016.48
2018-05-24T06:20:50.478Z,1016.45
2018-05-24T06:21:50.432Z,1016.46
2018-05-24T06:22:50.394Z,1016.44
2018-05-24T06:23:50.358Z,1016.45
2018-05-24T06:24:50.309Z,1016.47
2018-05-24T06:25:50.272Z,1016.44
2018-05-24T06:26:50.226Z,1016.47
2018-05-24T06:27:50.184Z,1016.42
2018-05-24T06:28:50.149Z,1016.39
2018-05-24T06:29:50.107Z,1016.39
2018-05-24T06:30:50.061Z,1016.38
2018-05-24T06:31:50.021Z,1016.34
2018-05-24T06:32:49.980Z,1016.36
2018-05-24T06:33:49.939Z,1016.37
2018-05-24T06:34:49.895Z,1016.34
2018-05-24T06:35:49.851Z,1016.35
2018-05-24T06:36:49.810Z,1016.35
2018-05-24T06:37:49.775Z,1016.36
2018-05-24T06:38:49.729Z,1016.32
2018-05-24T06:39:49.688Z,1016.34
2018-05-24T06:40:49.644Z,1016.31
2018-05-24T06:41:49.603Z,1016.31
2018-05-24T06:42:49.562Z,1016.35
2018-05-24T06:43:49.521Z,1016.33
2018-05-24T06:44:49.478Z,1016.37
2018-05-24T06:45:49.441Z,1016.32
2018-05-24T06:46:49.396Z,1016.28
2018-05-24T06:47:49.363Z,1016.31
2018-05-24T06:48:49.317Z,1016.25
2018-05-24T06:49:49.285Z,1016.25
2018-05-24T06:50:49.236Z,1016.25
2018-05-24T06:51:49.195Z,1016.24
2018-05-24T06:52:49.152Z,1016.22
2018-05-24T06:53:49.204Z,1016.20
2018-05-24T06:54:49.067Z,1016.20
2018-05-24T06:55:49.028Z,1016.25
2018-05-24T06:56:48.989Z,1016.26
2018-05-24T06:57:48.944Z,1016.31
2018-05-24T06:58:48.900Z,1016.31
2018-05-24T06:59:48.860Z,1016.34
2018-05-24T07:00:48.821Z,1016.34
2018-05-24T07:01:48.776Z,1016.34
2018-05-24T07:02:48.735Z,1016.36
2018-05-24T07:03:48.695Z,1016.42
2018-05-24T07:04:48.656Z,1016.43
2018-05-24T07:05:48.612Z,1016.43
2018-05-24T07:06:48.570Z,1016.44
2018-05-24T07:07:48.536Z,1016.46
2018-05-24T07:08:48.512Z,1016.47
2018-05-24T07:09:48.449Z,1016.50
2018-05-24T07:10:48.419Z,1016.56
2018-05-24T07:11:48.376Z,1016.52
2018-05-24T07:12:48.328Z,1016.53
2018-05-24T07:13:48.282Z,1016.53
2018-05-24T07:14:48.247Z,1016.53
2018-05-24T07:15:48.199Z,1016.55
2018-05-24T07:16:48.160Z,1016.54
2018-05-24T07:17:48.121Z,1016.54
2018-05-24T07:18:48.076Z,1016.52
2018-05-24T07:19:48.035Z,1016.48
2018-05-24T07:20:47.994Z,1016.51
2018-05-24T07:21:47.957Z,1016.51
2018-05-24T07:22:47.918Z,1016.54
2018-05-24T07:23:47.871Z,1016.58
2018-05-24T07:24:47.828Z,1016.59
2018-05-24T07:25:47.794Z,1016.61
2018-05-24T07:26:47.746Z,1016.60
2018-05-24T07:27:47.706Z,1016.57
2018-05-24T07:28:47.667Z,1016.58
2018-05-24T07:29:47.624Z,1016.62
2018-05-24T07:30:47.582Z,1016.60
2018-05-24T07:31:47.540Z,1016.62
2018-05-24T07:32:47.501Z,1016.62
2018-05-24T07:33:47.459Z,1016.59
2018-05-24T07:34:47.417Z,1016.58
2018-05-24T07:35:47.375Z,1016.64
2018-05-24T07:36:47.334Z,1016.59
2018-05-24T07:37:47.367Z,1016.57
2018-05-24T07:38:47.253Z,1016.47
2018-05-24T07:39:47.287Z,1016.66
2018-05-24T07:40:47.170Z,1016.61
2018-05-24T07:41:47.130Z,1016.61
2018-05-24T07:42:47.086Z,1016.63
2018-05-24T07:43:47.046Z,1016.61
2018-05-24T07:44:47.016Z,1016.60
2018-05-24T07:45:46.969Z,1016.60
2018-05-24T07:46:46.949Z,1016.61
2018-05-24T07:47:46.887Z,1016.59
2018-05-24T07:48:46.851Z,1016.62
2018-05-24T07:49:46.802Z,1016.61
2018-05-24T07:50:46.763Z,1016.61
2018-05-24T07:51:46.719Z,1016.62
2018-05-24T07:52:46.678Z,1016.61
2018-05-24T07:53:46.642Z,1016.60
2018-05-24T07:54:46.685Z,1016.63
2018-05-24T07:55:46.553Z,1016.60
2018-05-24T07:56:46.514Z,1016.60
2018-05-24T07:57:46.472Z,1016.61
2018-05-24T07:58:46.431Z,1016.59
2018-05-24T07:59:46.393Z,1016.68
2018-05-24T08:00:46.351Z,1016.63
2018-05-24T08:01:46.401Z,1016.65
2018-05-24T08:02:46.271Z,1016.63
2018-05-24T08:03:46.227Z,1016.62
2018-05-24T08:04:46.207Z,1016.60
2018-05-24T08:05:46.146Z,1016.64
2018-05-24T08:06:46.105Z,1016.61
2018-05-24T08:07:46.062Z,1016.58
2018-05-24T08:08:46.050Z,1016.58
2018-05-24T08:09:45.980Z,1016.56
2018-05-24T08:10:45.946Z,1016.54
2018-05-24T08:11:45.897Z,1016.51
2018-05-24T08:12:45.859Z,1016.54
2018-05-24T08:13:45.817Z,1016.53
2018-05-24T08:14:45.847Z,1016.52
2018-05-24T08:15:45.734Z,1016.56
2018-05-24T08:16:45.692Z,1016.56
2018-05-24T08:17:45.657Z,1016.57
2018-05-24T08:18:45.614Z,1016.56
2018-05-24T08:19:45.569Z,1016.48
2018-05-24T08:20:45.528Z,1016.47
2018-05-24T08:21:45.491Z,1016.48
2018-05-24T08:22:45.448Z,1016.44
2018-05-24T08:23:45.411Z,1016.49
2018-05-24T08:24:45.365Z,1016.48
2018-05-24T08:25:45.325Z,1016.48
2018-05-24T08:26:45.283Z,1016.50
2018-05-24T08:27:45.247Z,1016.51
2018-05-24T08:28:45.203Z,1016.49
2018-05-24T08:29:45.162Z,1016.46
2018-05-24T08:30:45.118Z,1016.42
2018-05-24T08:31:45.080Z,1016.35
2018-05-24T08:32:45.039Z,1016.34
2018-05-24T08:33:44.997Z,1016.31
2018-05-24T08:34:44.954Z,1016.34
2018-05-24T08:35:44.913Z,1016.35
2018-05-24T08:36:44.872Z,1016.32
2018-05-24T08:37:44.832Z,1016.28
2018-05-24T08:38:44.800Z,1016.31
2018-05-24T08:39:44.750Z,1016.26
2018-05-24T08:40:44.775Z,1016.26
2018-05-24T08:41:44.685Z,1016.22
2018-05-24T08:42:44.627Z,1016.18
2018-05-24T08:43:44.586Z,1016.22
2018-05-24T08:44:44.547Z,1016.23
2018-05-24T08:45:44.504Z,1016.26
2018-05-24T08:46:44.463Z,1016.33
2018-05-24T08:47:44.423Z,1016.36
2018-05-24T08:48:44.410Z,1016.34
2018-05-24T08:49:44.341Z,1016.35
2018-05-24T08:50:44.301Z,1016.29
2018-05-24T08:51:44.260Z,1016.27
2018-05-24T08:52:44.220Z,1016.28
2018-05-24T08:53:44.177Z,1016.32
2018-05-24T08:54:44.138Z,1016.31
2018-05-24T08:55:44.094Z,1016.26
2018-05-24T08:56:44.053Z,1016.29
2018-05-24T08:57:44.014Z,1016.24
2018-05-24T08:58:43.972Z,1016.25
2018-05-24T08:59:43.931Z,1016.26
2018-05-24T09:00:43.892Z,1016.24
2018-05-24T09:01:43.850Z,1016.21
2018-05-24T09:02:43.810Z,1016.23
2018-05-24T09:03:43.770Z,1016.27
2018-05-24T09:04:43.729Z,1016.27
2018-05-24T09:05:43.685Z,1016.28
2018-05-24T09:06:43.647Z,1016.30
2018-05-24T09:07:43.607Z,1016.28
2018-05-24T09:08:43.564Z,1016.29
2018-05-24T09:09:43.522Z,1016.31
2018-05-24T09:10:43.481Z,1016.31
2018-05-24T09:11:43.441Z,1016.34
2018-05-24T09:12:43.412Z,1016.34
2018-05-24T09:13:43.365Z,1016.37
2018-05-24T09:14:43.325Z,1016.37
2018-05-24T09:15:43.283Z,1016.34
2018-05-24T09:16:43.240Z,1016.38
2018-05-24T09:17:43.196Z,1016.40
2018-05-24T09:18:43.154Z,1016.44
2018-05-24T09:19:43.118Z,1016.46
2018-05-24T09:20:43.074Z,1016.46
2018-05-24T09:21:43.130Z,1016.49
2018-05-24T09:22:43.006Z,1016.47
2018-05-24T09:23:42.957Z,1016.47
2018-05-24T09:24:42.915Z,1016.48
2018-05-24T09:25:42.880Z,1016.51
2018-05-24T09:26:42.836Z,1016.50
2018-05-24T09:27:42.791Z,1016.48
2018-05-24T09:28:42.750Z,1016.47
2018-05-24T09:29:42.709Z,1016.50
2018-05-24T09:30:42.679Z,1016.47
2018-05-24T09:31:42.629Z,1016.46
2018-05-24T09:32:42.588Z,1016.46
2018-05-24T09:33:42.548Z,1016.47
2018-05-24T09:34:42.506Z,1016.47
2018-05-24T09:35:42.464Z,1016.43
2018-05-24T09:36:42.425Z,1016.43
2018-05-24T09:37:42.385Z,1016.38
2018-05-24T09:38:42.341Z,1016.38
2018-05-24T09:39:42.303Z,1016.41
2018-05-24T09:40:42.262Z,1016.41
2018-05-24T09:41:42.223Z,1016.38
2018-05-24T09:42:42.180Z,1016.40
2018-05-24T09:43:42.139Z,1016.38
2018-05-24T09:44:42.104Z,1016.38
2018-05-24T09:45:42.058Z,1016.36
2018-05-24T09:46:42.017Z,1016.36
2018-05-24T09:47:41.979Z,1016.38
2018-05-24T09:48:41.939Z,1016.39
2018-05-24T09:49:41.895Z,1016.38
2018-05-24T09:50:41.853Z,1016.42
2018-05-24T09:51:41.820Z,1016.40
2018-05-24T09:52:41.772Z,1016.39
2018-05-24T09:53:41.732Z,1016.39
2018-05-24T09:54:41.693Z,1016.32
2018-05-24T09:55:41.653Z,1016.35
2018-05-24T09:56:41.610Z,1016.33
2018-05-24T09:57:41.574Z,1016.32
2018-05-24T09:58:41.531Z,1016.28
2018-05-24T09:59:41.488Z,1016.29
2018-05-24T10:00:41.448Z,1016.30
2018-05-24T10:01:41.417Z,1016.28
2018-05-24T10:02:41.368Z,1016.26
2018-05-24T10:03:41.328Z,1016.25
2018-05-24T10:04:41.292Z,1016.20
2018-05-24T10:05:41.245Z,1016.21
2018-05-24T10:06:41.203Z,1016.18
2018-05-24T10:07:41.162Z,1016.18
2018-05-24T10:08:41.121Z,1016.13
2018-05-24T10:09:41.084Z,1016.14
2018-05-24T10:10:41.093Z,1016.14
2018-05-24T10:11:41.001Z,1016.14
2018-05-24T10:12:40.961Z,1016.07
2018-05-24T10:13:40.920Z,1016.06
2018-05-24T10:14:40.881Z,1016.01
2018-05-24T10:15:40.841Z,1016.02
2018-05-24T10:16:40.797Z,1016.01
2018-05-24T10:17:40.760Z,1015.97
2018-05-24T10:18:40.718Z,1015.98
2018-05-24T10:19:40.677Z,1015.95
2018-05-24T10:20:40.640Z,1015.93
2018-05-24T10:21:40.599Z,1015.96
2018-05-24T10:22:40.556Z,1015.98
2018-05-24T10:23:40.518Z,1015.97
2018-05-24T10:24:40.482Z,1015.97
2018-05-24T10:25:40.440Z,1015.97
2018-05-24T10:26:40.396Z,1015.92
2018-05-24T10:27:40.356Z,1015.92
2018-05-24T10:28:40.317Z,1015.94
2018-05-24T10:29:40.284Z,1015.88
2018-05-24T10:31:40.203Z,1015.90
2018-05-24T10:32:40.155Z,1015.92
2018-05-24T10:33:40.115Z,1015.91
2018-05-24T10:34:40.078Z,1015.91
2018-05-24T10:35:40.037Z,1015.89
2018-05-24T10:36:39.998Z,1015.90
2018-05-24T10:37:39.957Z,1015.92
2018-05-24T10:38:39.916Z,1015.93
2018-05-24T10:39:40.051Z,1015.92
2018-05-24T10:40:39.840Z,1015.90
2018-05-24T10:41:39.797Z,1015.89
2018-05-24T10:42:39.760Z,1015.90
2018-05-24T10:43:39.718Z,1015.85
2018-05-24T10:44:39.687Z,1015.86
2018-05-24T10:45:39.641Z,1015.89
2018-05-24T10:46:39.603Z,1015.85
2018-05-24T10:47:39.561Z,1015.81
2018-05-24T10:48:39.523Z,1015.87
2018-05-24T10:49:39.482Z,1015.85
2018-05-24T10:50:39.451Z,1015.82
2018-05-24T10:51:39.409Z,1015.82
2018-05-24T10:52:39.366Z,1015.85
2018-05-24T10:53:39.326Z,1015.84
2018-05-24T10:54:39.292Z,1015.81
2018-05-24T10:55:39.251Z,1015.79
2018-05-24T10:56:39.214Z,1015.78
2018-05-24T10:57:39.185Z,1015.80
2018-05-24T10:58:39.133Z,1015.80
2018-05-24T10:59:39.175Z,1015.81
2018-05-24T11:00:39.055Z,1015.79
2018-05-24T11:01:39.017Z,1015.77
2018-05-24T11:02:39.049Z,1015.78
2018-05-24T11:03:38.939Z,1015.80
2018-05-24T11:04:38.901Z,1015.76
2018-05-24T11:05:38.864Z,1015.76
2018-05-24T11:06:38.824Z,1015.71
2018-05-24T11:07:38.795Z,1015.68
2018-05-24T11:08:38.749Z,1015.72
2018-05-24T11:09:38.709Z,1015.70
2018-05-24T11:10:38.712Z,1015.70
2018-05-24T11:11:38.692Z,1015.72
2018-05-24T11:12:38.595Z,1015.69
2018-05-24T11:13:38.564Z,1015.66
2018-05-24T11:14:38.522Z,1015.62
2018-05-24T11:15:38.486Z,1015.67
2018-05-24T11:17:38.404Z,1015.68
2018-05-24T11:18:38.378Z,1015.61
2018-05-24T11:19:38.333Z,1015.65
2018-05-24T11:20:38.290Z,1015.64
2018-05-24T11:21:38.274Z,1015.65
2018-05-24T11:22:38.213Z,1015.63
2018-05-24T11:23:38.187Z,1015.60
2018-05-24T11:24:38.139Z,1015.61
2018-05-24T11:25:38.103Z,1015.60
2018-05-24T11:26:38.066Z,1015.62
2018-05-24T11:27:38.029Z,1015.57
2018-05-24T11:28:37.992Z,1015.57
2018-05-24T11:29:37.949Z,1015.58
2018-05-24T11:30:37.917Z,1015.59
2018-05-24T11:31:37.875Z,1015.58
2018-05-24T11:32:37.835Z,1015.58
2018-05-24T11:33:37.796Z,1015.56
2018-05-24T11:34:37.771Z,1015.61
2018-05-24T11:35:37.728Z,1015.56
2018-05-24T11:36:37.684Z,1015.53
2018-05-24T11:37:37.650Z,1015.54
2018-05-24T11:38:37.610Z,1015.58
2018-05-24T11:39:37.570Z,1015.55
2018-05-24T11:40:37.533Z,1015.55
2018-05-24T11:41:37.498Z,1015.52
2018-05-24T11:42:37.461Z,1015.52
2018-05-24T11:43:37.423Z,1015.54
2018-05-24T11:44:37.388Z,1015.51
2018-05-24T11:45:37.347Z,1015.52
2018-05-24T11:46:37.305Z,1015.50
2018-05-24T11:47:37.270Z,1015.49
2018-05-24T11:48:37.230Z,1015.48
2018-05-24T11:49:37.192Z,1015.49
2018-05-24T11:50:37.157Z,1015.45
2018-05-24T11:51:37.118Z,1015.47
2018-05-24T11:52:37.083Z,1015.45
2018-05-24T11:53:37.042Z,1015.44
2018-05-24T11:54:37.004Z,1015.43
2018-05-24T11:55:36.968Z,1015.45
2018-05-24T11:56:36.929Z,1015.40
2018-05-24T11:57:36.893Z,1015.38
2018-05-24T11:58:36.853Z,1015.38
2018-05-24T11:59:36.818Z,1015.42
2018-05-24T12:00:36.778Z,1015.36
2018-05-24T12:01:36.748Z,1015.39
2018-05-24T12:02:36.705Z,1015.39
2018-05-24T12:03:36.668Z,1015.37
2018-05-24T12:04:36.632Z,1015.37
2018-05-24T12:05:36.590Z,1015.37
2018-05-24T12:06:36.611Z,1015.37